Auckland Airport

Airport
ICAO code: 
NZAA
IATA Code: 
AKL
Summary
ICAO Region: 
APAC
Territory: 
Location: 
Mangere, Manukau City,
Serving: 
Auckland
Elevation: 
23 ft
Coordinates: 
Aerial View: 
37° 0' 34.198" S, 174° 47' 29.428" E
Airport LOS: 
Parallel Runway Operation
Metar
Observation
NZAA 262100Z AUTO 21020KT 9999 BKN038/// 20/13 Q1010 NOSIG
Station
Auckland Airport
Date/Time
2022-01-26 21:00:00
Wind direction
210°
Wind speed
20 kts
Lowest cloud amount
broken clouds
Temperature
20°C
Dew point
13°C
Humidity
64%
QNH
1010 hPa
Weather condition
n/a

Description

Auckland Airport (formerly Auckland International Airport) is the largest and busiest airport in New Zealand. The airport is in Mangere, a western suburb of Manukau City, and is 21 km south of Auckland City centre.

Climatology

Temperate Marine climate/Oceanic climate (Köppen climate classification Cfb) - Moderately cool summer and comparatively warm winter.

Runways

Designator Length Width Surface Rops
05L/23R 3108 45 CON Yes/Yes
05R/23L 3635 45 CON Yes/Yes

SKYbrary Partners:

Safety knowledge contributed by: